createdAt,value
2019-01-13T00:01:58.303Z,70.84
2019-01-13T00:04:27.692Z,71.10
2019-01-13T00:06:57.179Z,71.30
2019-01-13T00:09:26.855Z,71.72
2019-01-13T00:11:56.344Z,72.12
2019-01-13T00:14:26.887Z,72.30
2019-01-13T00:16:56.425Z,72.40
2019-01-13T00:19:25.919Z,72.38
2019-01-13T00:21:55.403Z,72.57
2019-01-13T00:24:24.838Z,72.42
2019-01-13T00:26:54.227Z,72.66
2019-01-13T00:29:23.734Z,73.02
2019-01-13T00:31:53.274Z,73.21
2019-01-13T00:34:22.668Z,73.28
2019-01-13T00:36:52.068Z,73.27
2019-01-13T00:39:21.598Z,73.37
2019-01-13T00:41:51.174Z,73.41
2019-01-13T00:44:20.562Z,73.40
2019-01-13T00:46:49.995Z,73.33
2019-01-13T00:49:20.047Z,73.34
2019-01-13T00:51:49.646Z,73.45
2019-01-13T00:54:19.234Z,73.31
2019-01-13T00:56:48.610Z,73.69
2019-01-13T00:59:18.131Z,73.63
2019-01-13T01:01:47.674Z,73.59
2019-01-13T01:04:17.079Z,73.28
2019-01-13T01:06:46.593Z,73.57
2019-01-13T01:09:16.183Z,73.51
2019-01-13T01:11:45.595Z,73.33
2019-01-13T01:14:15.163Z,73.47
2019-01-13T01:16:44.763Z,73.80
2019-01-13T01:19:14.211Z,73.79
2019-01-13T01:21:43.617Z,73.80
2019-01-13T01:24:13.162Z,73.67
2019-01-13T01:26:42.754Z,73.72
2019-01-13T01:29:12.147Z,74.22
2019-01-13T01:31:41.590Z,74.60
2019-01-13T01:34:11.097Z,74.77
2019-01-13T01:36:40.585Z,75.01
2019-01-13T01:39:10.018Z,75.07
2019-01-13T01:41:39.474Z,75.14
2019-01-13T01:44:08.933Z,75.41
2019-01-13T01:46:38.512Z,75.59
2019-01-13T01:49:08.028Z,75.54
2019-01-13T01:51:37.530Z,75.56
2019-01-13T01:54:06.976Z,75.98
2019-01-13T01:56:36.364Z,75.63
2019-01-13T01:59:05.950Z,75.66
2019-01-13T02:01:35.498Z,76.01
2019-01-13T02:04:04.891Z,76.07
2019-01-13T02:06:34.411Z,75.96
2019-01-13T02:09:07.649Z,76.04
2019-01-13T02:11:37.139Z,76.12
2019-01-13T02:14:06.577Z,76.29
2019-01-13T02:16:36.044Z,76.67
2019-01-13T02:19:05.547Z,76.55
2019-01-13T02:21:35.058Z,76.55
2019-01-13T02:24:04.647Z,77.12
2019-01-13T02:26:34.128Z,76.77
2019-01-13T02:29:03.511Z,76.94
2019-01-13T02:31:32.941Z,77.28
2019-01-13T02:34:02.449Z,77.24
2019-01-13T02:36:31.931Z,77.23
2019-01-13T02:39:01.378Z,77.22
2019-01-13T02:41:30.771Z,77.26
2019-01-13T02:44:00.266Z,77.42
2019-01-13T02:46:29.959Z,77.54
2019-01-13T02:48:59.349Z,77.48
2019-01-13T02:51:28.747Z,77.76
2019-01-13T02:53:58.427Z,78.04
2019-01-13T02:56:27.941Z,78.26
2019-01-13T02:58:57.382Z,78.68
2019-01-13T03:01:26.793Z,79.12
2019-01-13T03:03:56.345Z,79.17
2019-01-13T03:06:25.743Z,79.12
2019-01-13T03:08:55.461Z,79.17
2019-01-13T03:11:24.961Z,79.31
2019-01-13T03:13:54.392Z,79.51
2019-01-13T03:16:23.819Z,79.88
2019-01-13T03:18:53.937Z,80.17
2019-01-13T03:21:23.437Z,79.92
2019-01-13T03:23:52.912Z,80.14
2019-01-13T03:26:22.306Z,80.40
2019-01-13T03:28:51.800Z,80.84
2019-01-13T03:31:21.344Z,81.13
2019-01-13T03:33:50.726Z,81.61
2019-01-13T03:36:20.131Z,81.98
2019-01-13T03:38:50.508Z,83.31
2019-01-13T03:41:20.012Z,83.87
2019-01-13T03:43:49.389Z,84.27
2019-01-13T03:46:19.069Z,84.33
2019-01-13T03:48:48.931Z,83.95
2019-01-13T03:51:18.331Z,84.53
2019-01-13T03:53:47.864Z,84.44
2019-01-13T03:56:17.369Z,84.48
2019-01-13T03:58:46.766Z,85.62
2019-01-13T04:01:18.661Z,86.60
2019-01-13T04:03:47.413Z,86.95
2019-01-13T04:06:16.931Z,87.55
2019-01-13T04:08:46.414Z,86.71
2019-01-13T04:11:15.880Z,86.95
2019-01-13T04:13:45.364Z,87.03
2019-01-13T04:16:14.928Z,86.52
2019-01-13T04:18:44.331Z,85.75
2019-01-13T04:21:13.781Z,84.73
2019-01-13T04:23:43.428Z,83.86
2019-01-13T04:26:12.816Z,83.59
2019-01-13T04:28:42.313Z,84.09
2019-01-13T04:31:11.857Z,84.30
2019-01-13T04:33:41.261Z,84.55
2019-01-13T04:36:10.689Z,85.29
2019-01-13T04:38:40.223Z,85.33
2019-01-13T04:41:09.726Z,85.84
2019-01-13T04:43:39.199Z,86.25
2019-01-13T04:46:08.678Z,86.53
2019-01-13T04:48:38.183Z,86.15
2019-01-13T04:51:07.707Z,86.31
2019-01-13T04:53:37.281Z,86.21
2019-01-13T04:56:06.701Z,86.50
2019-01-13T04:58:38.738Z,86.28
2019-01-13T05:01:08.280Z,86.11
2019-01-13T05:03:37.680Z,85.74
2019-01-13T05:06:07.186Z,85.81
2019-01-13T05:08:36.626Z,85.99
2019-01-13T05:11:06.037Z,85.92
2019-01-13T05:13:35.563Z,86.20
2019-01-13T05:16:05.212Z,85.39
2019-01-13T05:18:34.606Z,85.35
2019-01-13T05:21:04.006Z,85.64
2019-01-13T05:23:33.549Z,85.16
2019-01-13T05:26:03.045Z,83.44
2019-01-13T05:28:32.442Z,82.03
2019-01-13T05:31:01.863Z,81.01
2019-01-13T05:33:31.360Z,80.04
2019-01-13T05:36:00.916Z,79.49
2019-01-13T05:38:30.355Z,78.77
2019-01-13T05:40:59.760Z,78.47
2019-01-13T05:43:29.295Z,78.31
2019-01-13T05:45:58.813Z,78.50
2019-01-13T05:48:28.199Z,78.47
2019-01-13T05:50:57.717Z,78.39
2019-01-13T05:53:27.248Z,78.32
2019-01-13T05:55:56.779Z,78.28
2019-01-13T05:58:26.798Z,78.52
2019-01-13T06:00:56.434Z,78.84
2019-01-13T06:03:25.903Z,78.93
2019-01-13T06:05:55.681Z,78.47
2019-01-13T06:08:25.118Z,78.57
2019-01-13T06:10:54.535Z,78.42
2019-01-13T06:13:24.024Z,78.18
2019-01-13T06:15:53.672Z,77.86
2019-01-13T06:18:23.066Z,77.89
2019-01-13T06:20:52.459Z,77.75
2019-01-13T06:23:21.984Z,77.45
2019-01-13T06:25:51.416Z,76.89
2019-01-13T06:28:20.919Z,77.22
2019-01-13T06:30:50.654Z,76.82
2019-01-13T06:33:20.073Z,76.74
2019-01-13T06:35:49.500Z,76.24
2019-01-13T06:38:19.076Z,76.16
2019-01-13T06:40:48.564Z,76.34
2019-01-13T06:43:18.062Z,76.15
2019-01-13T06:45:47.638Z,76.12
2019-01-13T06:48:17.149Z,76.03
2019-01-13T06:50:46.659Z,76.03
2019-01-13T06:53:16.507Z,76.18
2019-01-13T06:55:45.926Z,75.52
2019-01-13T06:58:15.430Z,75.14
2019-01-13T07:00:44.981Z,75.27
2019-01-13T07:03:14.417Z,74.81
2019-01-13T07:05:44.154Z,74.49
2019-01-13T07:08:13.597Z,73.75
2019-01-13T07:10:42.996Z,73.07
2019-01-13T07:13:12.459Z,73.05
2019-01-13T07:15:41.981Z,73.54
2019-01-13T07:18:11.370Z,73.24
2019-01-13T07:20:40.761Z,72.96
2019-01-13T07:23:10.296Z,72.26
2019-01-13T07:25:39.779Z,72.11
2019-01-13T07:28:09.173Z,71.83
2019-01-13T07:30:38.599Z,71.50
2019-01-13T07:33:08.076Z,70.98
2019-01-13T07:35:37.632Z,70.86
2019-01-13T07:38:07.191Z,71.26
2019-01-13T07:40:36.665Z,70.69
2019-01-13T07:43:06.272Z,70.44
2019-01-13T07:45:35.926Z,69.67
2019-01-13T07:48:05.482Z,69.68
2019-01-13T07:50:35.048Z,69.75
2019-01-13T07:53:04.818Z,69.33
2019-01-13T07:55:34.356Z,69.21
2019-01-13T07:58:03.981Z,68.95
2019-01-13T08:03:03.329Z,68.59
2019-01-13T08:05:32.770Z,68.13
2019-01-13T08:08:02.301Z,68.28
2019-01-13T08:10:31.872Z,67.70
2019-01-13T08:13:01.405Z,67.57
2019-01-13T08:15:31.039Z,67.22
2019-01-13T08:18:00.511Z,66.83
2019-01-13T08:20:34.195Z,66.98
2019-01-13T08:23:03.774Z,66.33
2019-01-13T08:25:33.315Z,66.20
2019-01-13T08:28:02.788Z,65.07
2019-01-13T08:30:32.200Z,64.66
2019-01-13T08:33:01.699Z,64.88
2019-01-13T08:35:31.425Z,64.71
2019-01-13T08:38:00.890Z,64.03
2019-01-13T08:40:30.356Z,63.90
2019-01-13T08:43:00.075Z,63.72
2019-01-13T08:45:29.680Z,63.44
2019-01-13T08:47:59.138Z,63.44
2019-01-13T08:50:28.738Z,63.61
2019-01-13T08:52:59.064Z,63.57
2019-01-13T08:55:30.083Z,63.31
2019-01-13T08:57:59.685Z,63.00
2019-01-13T09:00:35.803Z,63.03
2019-01-13T09:03:07.062Z,62.52
2019-01-13T09:05:36.619Z,62.63
2019-01-13T09:08:07.124Z,62.10
2019-01-13T09:10:36.769Z,61.40
2019-01-13T09:13:06.315Z,61.38
2019-01-13T09:15:35.792Z,61.44
2019-01-13T09:18:05.659Z,61.02
2019-01-13T09:20:35.239Z,60.78
2019-01-13T09:23:05.340Z,60.78
2019-01-13T09:25:36.649Z,60.28
2019-01-13T09:28:06.922Z,59.92
2019-01-13T09:30:36.530Z,59.96
2019-01-13T09:33:06.254Z,59.60
2019-01-13T09:35:35.745Z,60.06
2019-01-13T09:38:06.745Z,59.88
2019-01-13T09:40:36.865Z,59.46
2019-01-13T09:43:06.962Z,59.07
2019-01-13T09:45:36.681Z,58.78
2019-01-13T09:48:06.339Z,58.85
2019-01-13T09:50:35.750Z,58.63
2019-01-13T09:53:05.762Z,58.47
2019-01-13T09:55:35.358Z,58.74
2019-01-13T09:58:04.919Z,58.42
2019-01-13T10:00:35.929Z,58.32
2019-01-13T10:03:06.657Z,58.10
2019-01-13T10:05:36.258Z,57.45
2019-01-13T10:08:06.416Z,57.30
2019-01-13T10:10:35.923Z,57.41
2019-01-13T10:13:05.498Z,57.57
2019-01-13T10:15:35.134Z,57.57
2019-01-13T10:18:04.656Z,56.36
2019-01-13T10:20:34.035Z,56.34
2019-01-13T10:23:04.654Z,55.99
2019-01-13T10:25:34.120Z,55.78
2019-01-13T10:28:03.828Z,55.43
2019-01-13T10:30:34.082Z,55.01
2019-01-13T10:33:03.708Z,54.37
2019-01-13T10:35:33.212Z,54.00
2019-01-13T10:38:02.744Z,53.60
2019-01-13T10:40:32.674Z,53.22
2019-01-13T10:43:02.479Z,53.09
2019-01-13T10:45:32.018Z,52.80
2019-01-13T10:48:01.605Z,52.19
2019-01-13T10:50:32.407Z,51.99
2019-01-13T10:53:06.751Z,52.09
2019-01-13T10:55:36.167Z,51.52
2019-01-13T10:58:05.924Z,51.38
2019-01-13T11:00:37.140Z,50.63
2019-01-13T11:03:06.974Z,50.96
2019-01-13T11:05:36.686Z,51.23
2019-01-13T11:08:11.425Z,51.43
2019-01-13T11:10:38.413Z,50.95
2019-01-13T11:13:07.813Z,50.93
2019-01-13T11:15:37.275Z,51.09
2019-01-13T11:18:07.278Z,51.83
2019-01-13T11:20:40.569Z,51.30
2019-01-13T11:23:10.656Z,51.59
2019-01-13T11:25:40.140Z,52.04
2019-01-13T11:28:09.677Z,52.45
2019-01-13T11:30:39.371Z,52.53
2019-01-13T11:33:09.763Z,52.71
2019-01-13T11:35:39.363Z,52.29
2019-01-13T11:38:09.634Z,51.98
2019-01-13T11:40:39.464Z,51.83
2019-01-13T11:43:08.916Z,51.53
2019-01-13T11:45:38.733Z,51.87
2019-01-13T11:48:08.221Z,51.49
2019-01-13T11:50:37.626Z,51.29
2019-01-13T11:53:07.259Z,51.17
2019-01-13T11:55:36.778Z,50.22
2019-01-13T11:58:06.299Z,50.65
2019-01-13T12:00:38.784Z,50.77
2019-01-13T12:03:08.375Z,51.11
2019-01-13T12:05:38.173Z,51.71
2019-01-13T12:08:07.877Z,52.83
2019-01-13T12:10:37.373Z,53.89
2019-01-13T12:13:07.771Z,54.09
2019-01-13T12:15:37.291Z,53.76
2019-01-13T12:18:07.376Z,53.95
2019-01-13T12:20:36.792Z,53.17
2019-01-13T12:23:06.406Z,53.07
2019-01-13T12:25:35.920Z,51.90
2019-01-13T12:28:05.822Z,52.09
2019-01-13T12:30:35.451Z,52.58
2019-01-13T12:33:05.553Z,52.59
2019-01-13T12:35:34.998Z,53.25
2019-01-13T12:38:04.853Z,53.60
2019-01-13T12:40:34.399Z,53.99
2019-01-13T12:43:05.592Z,54.48
2019-01-13T12:45:35.086Z,54.19
2019-01-13T12:48:05.006Z,53.64
2019-01-13T12:50:34.610Z,53.37
2019-01-13T12:53:04.294Z,52.52
2019-01-13T12:55:33.840Z,52.39
2019-01-13T12:58:03.324Z,52.08
2019-01-13T13:00:33.041Z,52.22
2019-01-13T13:03:02.444Z,52.50
2019-01-13T13:05:31.970Z,52.22
2019-01-13T13:08:01.416Z,52.53
2019-01-13T13:10:36.592Z,52.50
2019-01-13T13:13:06.823Z,52.45
2019-01-13T13:15:36.417Z,52.34
2019-01-13T13:18:06.028Z,51.85
2019-01-13T13:20:35.668Z,51.87
2019-01-13T13:23:05.373Z,52.79
2019-01-13T13:25:34.964Z,53.22
2019-01-13T13:28:04.617Z,53.33
2019-01-13T13:30:34.042Z,53.20
2019-01-13T13:33:03.647Z,53.26
2019-01-13T13:35:39.678Z,53.39
2019-01-13T13:38:04.701Z,52.98
2019-01-13T13:40:34.231Z,53.39
2019-01-13T13:43:03.763Z,53.18
2019-01-13T13:45:33.194Z,52.70
2019-01-13T13:48:02.811Z,51.96
2019-01-13T13:50:32.516Z,51.91
2019-01-13T13:53:01.926Z,52.02
2019-01-13T13:55:31.391Z,52.33
2019-01-13T13:58:02.326Z,52.53
2019-01-13T14:00:35.151Z,52.08
2019-01-13T14:03:04.777Z,51.96
2019-01-13T14:05:34.406Z,51.57
2019-01-13T14:08:04.500Z,51.65
2019-01-13T14:10:43.878Z,52.63
2019-01-13T14:13:13.732Z,53.24
2019-01-13T14:15:43.138Z,53.49
2019-01-13T14:18:13.147Z,53.87
2019-01-13T14:20:42.763Z,54.42
2019-01-13T14:23:12.170Z,55.17
2019-01-13T14:25:41.665Z,55.01
2019-01-13T14:28:11.077Z,55.10
2019-01-13T14:30:40.479Z,55.65
2019-01-13T14:33:10.197Z,55.61
2019-01-13T14:35:39.795Z,55.53
2019-01-13T14:38:09.312Z,55.66
2019-01-13T14:40:38.879Z,55.30
2019-01-13T14:43:08.383Z,54.85
2019-01-13T14:45:37.874Z,54.79
2019-01-13T14:48:07.330Z,55.36
2019-01-13T14:50:36.764Z,55.87
2019-01-13T14:53:07.983Z,56.37
2019-01-13T14:55:37.535Z,56.83
2019-01-13T14:58:08.300Z,56.82
2019-01-13T15:00:37.726Z,56.78
2019-01-13T15:03:07.565Z,56.51
2019-01-13T15:05:37.038Z,56.59
2019-01-13T15:08:08.110Z,56.35
2019-01-13T15:10:37.659Z,56.55
2019-01-13T15:13:07.100Z,56.50
2019-01-13T15:15:36.600Z,56.72
2019-01-13T15:18:06.892Z,57.31
2019-01-13T15:20:36.387Z,57.38
2019-01-13T15:23:06.121Z,57.77
2019-01-13T15:25:35.610Z,57.46
2019-01-13T15:28:05.344Z,57.84
2019-01-13T15:30:36.976Z,58.17
2019-01-13T15:33:10.072Z,58.97
2019-01-13T15:35:39.620Z,58.22
2019-01-13T15:38:10.240Z,58.95
2019-01-13T15:40:40.214Z,58.87
2019-01-13T15:43:09.666Z,59.18
2019-01-13T15:45:39.269Z,58.15
2019-01-13T15:48:09.437Z,58.56
2019-01-13T15:50:38.975Z,59.00
2019-01-13T15:53:08.584Z,59.16
2019-01-13T15:55:38.185Z,59.35
2019-01-13T15:58:07.780Z,59.64
2019-01-13T16:00:38.474Z,60.43
2019-01-13T16:03:11.424Z,61.29
2019-01-13T16:05:41.036Z,62.12
2019-01-13T16:08:10.610Z,62.59
2019-01-13T16:10:40.499Z,62.24
2019-01-13T16:13:10.116Z,60.85
2019-01-13T16:15:39.825Z,60.27
2019-01-13T16:18:09.965Z,60.83
2019-01-13T16:20:41.393Z,60.79
2019-01-13T16:23:11.064Z,60.83
2019-01-13T16:25:40.806Z,60.42
2019-01-13T16:28:10.229Z,60.92
2019-01-13T16:30:39.755Z,60.74
2019-01-13T16:33:09.456Z,61.06
2019-01-13T16:35:39.558Z,60.79
2019-01-13T16:38:08.991Z,61.17
2019-01-13T16:40:38.618Z,60.62
2019-01-13T16:43:08.161Z,61.13
2019-01-13T16:45:37.689Z,60.90
2019-01-13T16:48:07.626Z,62.49
2019-01-13T16:50:37.068Z,61.36
2019-01-13T16:53:06.729Z,61.25
2019-01-13T16:55:36.306Z,61.64
2019-01-13T16:58:06.268Z,62.21
2019-01-13T17:00:35.896Z,62.71
2019-01-13T17:03:05.944Z,63.06
2019-01-13T17:05:35.785Z,63.02
2019-01-13T17:08:05.539Z,63.40
2019-01-13T17:10:35.152Z,63.60
2019-01-13T17:13:04.576Z,64.28
2019-01-13T17:15:35.623Z,64.60
2019-01-13T17:18:05.819Z,65.01
2019-01-13T17:20:35.459Z,65.27
2019-01-13T17:23:05.135Z,65.65
2019-01-13T17:25:35.358Z,65.92
2019-01-13T17:28:05.176Z,66.61
2019-01-13T17:30:36.028Z,66.53
2019-01-13T17:33:06.178Z,66.73
2019-01-13T17:35:35.726Z,67.25
2019-01-13T17:38:06.137Z,67.29
2019-01-13T17:40:35.918Z,67.41
2019-01-13T17:43:05.590Z,67.37
2019-01-13T17:45:35.552Z,67.34
2019-01-13T17:48:06.341Z,67.59
2019-01-13T17:50:35.757Z,68.58
2019-01-13T17:53:07.786Z,68.60
2019-01-13T17:55:37.549Z,68.96
2019-01-13T17:58:07.136Z,69.00
2019-01-13T18:01:10.369Z,69.34
2019-01-13T18:03:43.168Z,69.55
2019-01-13T18:06:12.664Z,70.67
2019-01-13T18:08:42.571Z,70.90
2019-01-13T18:11:11.977Z,70.87
2019-01-13T18:13:41.502Z,70.98
2019-01-13T18:16:11.213Z,70.85
2019-01-13T18:18:40.953Z,70.81
2019-01-13T18:21:10.366Z,71.14
2019-01-13T18:23:39.960Z,71.44
2019-01-13T18:26:09.482Z,71.85
2019-01-13T18:28:39.037Z,71.74
2019-01-13T18:31:08.664Z,71.66
2019-01-13T18:33:38.123Z,71.71
2019-01-13T18:36:08.032Z,71.74
2019-01-13T18:38:37.654Z,71.87
2019-01-13T18:41:07.155Z,72.08
2019-01-13T18:43:36.580Z,71.40
2019-01-13T18:46:06.851Z,71.88
2019-01-13T18:48:36.456Z,72.11
2019-01-13T18:51:06.206Z,71.99
2019-01-13T18:53:35.666Z,72.14
2019-01-13T18:56:05.119Z,72.03
2019-01-13T18:58:34.788Z,71.91
2019-01-13T19:01:05.165Z,72.07
2019-01-13T19:03:34.581Z,72.02
2019-01-13T19:06:04.033Z,71.98
2019-01-13T19:08:33.646Z,72.09
2019-01-13T19:11:33.931Z,71.69
2019-01-13T19:14:20.199Z,71.53
2019-01-13T19:16:57.098Z,71.28
2019-01-13T19:19:26.685Z,70.73
2019-01-13T19:21:56.195Z,71.10
2019-01-13T19:24:25.618Z,70.32
2019-01-13T19:26:55.090Z,70.82
2019-01-13T19:29:24.611Z,70.23
2019-01-13T19:31:54.166Z,69.69
2019-01-13T19:34:23.651Z,69.25
2019-01-13T19:36:53.068Z,69.31
2019-01-13T19:39:22.922Z,69.03
2019-01-13T19:41:52.489Z,69.12
2019-01-13T19:44:21.904Z,68.67
2019-01-13T19:46:51.431Z,68.27
2019-01-13T19:49:20.902Z,67.61
2019-01-13T19:51:50.340Z,66.93
2019-01-13T19:54:19.859Z,67.12
2019-01-13T19:56:49.421Z,67.23
2019-01-13T19:59:19.952Z,67.04
2019-01-13T20:01:49.795Z,67.32
2019-01-13T20:04:19.409Z,67.37
2019-01-13T20:06:48.975Z,67.60
2019-01-13T20:09:18.406Z,67.70
2019-01-13T20:11:48.008Z,68.05
2019-01-13T20:14:17.583Z,67.68
2019-01-13T20:16:47.120Z,68.02
2019-01-13T20:19:16.743Z,67.76
2019-01-13T20:21:46.799Z,67.71
2019-01-13T20:24:16.355Z,67.74
2019-01-13T20:26:45.826Z,68.03
2019-01-13T20:29:15.346Z,68.11
2019-01-13T20:31:44.868Z,68.21
2019-01-13T20:34:14.380Z,68.42
2019-01-13T20:36:43.787Z,68.54
2019-01-13T20:39:13.287Z,69.08
2019-01-13T20:41:42.827Z,69.32
2019-01-13T20:44:12.248Z,69.68
2019-01-13T20:46:41.683Z,69.94
2019-01-13T20:49:11.595Z,70.75
2019-01-13T20:51:41.137Z,71.36
2019-01-13T20:54:10.556Z,72.27
2019-01-13T20:56:40.018Z,72.95
2019-01-13T20:59:09.536Z,72.91
2019-01-13T21:01:39.093Z,73.12
2019-01-13T21:04:08.600Z,73.37
2019-01-13T21:06:38.500Z,73.35
2019-01-13T21:09:10.645Z,73.69
2019-01-13T21:11:40.180Z,74.07
2019-01-13T21:14:09.695Z,74.56
2019-01-13T21:16:39.200Z,74.29
2019-01-13T21:19:08.655Z,74.15
2019-01-13T21:21:38.110Z,74.20
2019-01-13T21:24:07.605Z,74.14
2019-01-13T21:26:37.288Z,74.41
2019-01-13T21:29:06.804Z,74.42
2019-01-13T21:31:36.275Z,73.58
2019-01-13T21:34:05.955Z,73.66
2019-01-13T21:36:35.449Z,74.15
2019-01-13T21:39:07.138Z,74.45
2019-01-13T21:41:36.822Z,75.06
2019-01-13T21:44:06.436Z,75.05
2019-01-13T21:46:35.941Z,74.71
2019-01-13T21:49:05.442Z,74.94
2019-01-13T21:51:34.847Z,75.09
2019-01-13T21:54:10.700Z,76.10
2019-01-13T21:56:35.633Z,76.74
2019-01-13T21:59:05.105Z,77.04
2019-01-13T22:01:35.628Z,76.98
2019-01-13T22:04:05.675Z,77.75
2019-01-13T22:06:35.143Z,78.06
2019-01-13T22:09:08.828Z,78.48
2019-01-13T22:11:38.289Z,79.07
2019-01-13T22:14:07.908Z,80.14
2019-01-13T22:16:37.428Z,80.43
2019-01-13T22:19:06.902Z,80.51
2019-01-13T22:21:36.412Z,80.76
2019-01-13T22:24:06.003Z,81.60
2019-01-13T22:26:35.623Z,81.81
2019-01-13T22:29:05.565Z,82.65
2019-01-13T22:31:35.048Z,84.22
2019-01-13T22:34:04.559Z,83.98
2019-01-13T22:36:34.461Z,84.31
2019-01-13T22:39:07.820Z,85.28
2019-01-13T22:41:37.586Z,85.53
2019-01-13T22:44:07.020Z,87.12
2019-01-13T22:46:36.459Z,86.08
2019-01-13T22:49:06.228Z,85.77
2019-01-13T22:51:35.739Z,86.39
2019-01-13T22:54:05.171Z,86.56
2019-01-13T22:56:34.784Z,87.47
2019-01-13T22:59:04.994Z,87.99
2019-01-13T23:01:42.684Z,88.45
2019-01-13T23:04:19.207Z,89.01
2019-01-13T23:06:48.738Z,88.61
2019-01-13T23:09:18.166Z,89.46
2019-01-13T23:11:47.568Z,89.17
2019-01-13T23:14:17.126Z,90.36
2019-01-13T23:16:46.753Z,90.36
2019-01-13T23:19:16.157Z,90.95
2019-01-13T23:21:45.615Z,90.88
2019-01-13T23:24:15.175Z,92.09
2019-01-13T23:26:44.649Z,92.80
2019-01-13T23:29:14.109Z,93.55
2019-01-13T23:31:43.555Z,93.79
2019-01-13T23:34:13.086Z,94.07
2019-01-13T23:36:42.648Z,94.58
2019-01-13T23:39:12.071Z,94.88
2019-01-13T23:41:44.453Z,94.65
2019-01-13T23:44:14.004Z,94.68
2019-01-13T23:46:43.406Z,95.08
2019-01-13T23:49:13.204Z,94.59
2019-01-13T23:51:42.899Z,94.90
2019-01-13T23:54:12.295Z,94.82
2019-01-13T23:56:41.748Z,95.17
2019-01-13T23:59:11.325Z,95.16
